createdAt,value
2023-06-27T00:01:48.503Z,22.26
2023-06-27T00:06:50.562Z,22.28
2023-06-27T00:11:52.288Z,22.32
2023-06-27T00:16:54.151Z,22.36
2023-06-27T00:21:56.580Z,22.39
2023-06-27T00:26:58.879Z,22.41
2023-06-27T00:32:00.725Z,22.43
2023-06-27T00:37:02.494Z,22.41
2023-06-27T00:42:05.189Z,22.33
2023-06-27T00:47:07.514Z,22.28
2023-06-27T00:52:09.487Z,22.36
2023-06-27T00:57:11.308Z,22.53
2023-06-27T01:02:15.116Z,22.73
2023-06-27T01:07:28.380Z,22.86
2023-06-27T01:12:48.040Z,22.89
2023-06-27T01:17:51.238Z,22.89
2023-06-27T01:23:28.197Z,22.86
2023-06-27T01:28:30.005Z,22.86
2023-06-27T01:33:42.860Z,22.86
2023-06-27T01:39:11.690Z,22.87
2023-06-27T01:44:15.428Z,22.93
2023-06-27T01:49:17.360Z,22.94
2023-06-27T01:54:19.086Z,22.76
2023-06-27T01:59:20.948Z,22.66
2023-06-27T02:04:22.611Z,22.62
2023-06-27T02:09:24.518Z,22.57
2023-06-27T02:14:26.405Z,22.50
2023-06-27T02:19:28.117Z,22.39
2023-06-27T02:24:29.748Z,22.44
2023-06-27T02:29:31.994Z,22.43
2023-06-27T02:34:33.667Z,22.40
2023-06-27T02:39:35.427Z,22.37
2023-06-27T02:44:37.163Z,22.37
2023-06-27T02:49:38.931Z,22.35
2023-06-27T02:54:40.674Z,22.32
2023-06-27T02:59:42.319Z,22.25
2023-06-27T03:04:45.723Z,22.27
2023-06-27T03:09:47.626Z,22.27
2023-06-27T03:14:52.431Z,22.27
2023-06-27T03:19:55.021Z,22.31
2023-06-27T03:24:56.828Z,22.33
2023-06-27T03:29:59.994Z,22.36
2023-06-27T03:35:03.002Z,22.35
2023-06-27T03:40:05.909Z,22.39
2023-06-27T03:45:08.119Z,22.42
2023-06-27T03:50:10.152Z,22.44
2023-06-27T03:55:12.093Z,22.36
2023-06-27T04:00:15.707Z,22.38
2023-06-27T04:05:17.623Z,22.37
2023-06-27T04:10:20.421Z,22.40
2023-06-27T04:15:22.245Z,22.42
2023-06-27T04:20:24.228Z,22.44
2023-06-27T04:25:33.851Z,22.45
2023-06-27T04:30:37.752Z,22.43
2023-06-27T04:35:39.893Z,22.40
2023-06-27T04:40:45.083Z,22.38
2023-06-27T04:45:46.951Z,22.33
2023-06-27T04:50:48.805Z,22.36
2023-06-27T04:55:51.870Z,22.33
2023-06-27T05:00:53.762Z,22.31
2023-06-27T05:05:55.558Z,22.30
2023-06-27T05:10:57.921Z,22.27
2023-06-27T05:15:59.877Z,22.28
2023-06-27T05:21:01.562Z,22.31
2023-06-27T05:26:03.400Z,22.39
2023-06-27T05:31:05.305Z,22.40
2023-06-27T05:36:08.404Z,22.41
2023-06-27T05:41:10.186Z,22.42
2023-06-27T05:46:11.926Z,22.42
2023-06-27T05:51:13.696Z,22.49
2023-06-27T05:56:15.458Z,22.52
2023-06-27T06:01:17.132Z,22.47
2023-06-27T06:06:18.843Z,22.45
2023-06-27T06:11:20.497Z,22.44
2023-06-27T06:16:22.195Z,22.47
2023-06-27T06:21:23.883Z,22.50
2023-06-27T06:26:25.781Z,22.39
2023-06-27T06:31:27.389Z,22.39
2023-06-27T06:36:29.153Z,22.30
2023-06-27T06:41:31.542Z,22.35
2023-06-27T06:46:33.445Z,22.41
2023-06-27T06:51:35.212Z,22.36
2023-06-27T06:56:36.918Z,22.39
2023-06-27T07:01:38.720Z,22.36
2023-06-27T07:06:40.428Z,22.37
2023-06-27T07:11:42.242Z,22.40
2023-06-27T07:16:43.907Z,22.39
2023-06-27T07:21:45.659Z,22.35
2023-06-27T07:26:47.527Z,22.40
2023-06-27T07:31:49.138Z,22.50
2023-06-27T07:36:51.248Z,22.67
2023-06-27T07:41:53.037Z,22.72
2023-06-27T07:46:54.735Z,22.62
2023-06-27T07:51:56.557Z,22.44
2023-06-27T07:56:58.683Z,22.27
2023-06-27T08:02:00.562Z,22.01
2023-06-27T08:07:02.437Z,21.81
2023-06-27T08:12:07.458Z,21.72
2023-06-27T08:17:09.291Z,21.76
2023-06-27T08:22:10.996Z,21.74
2023-06-27T08:27:12.990Z,21.69
2023-06-27T08:32:14.669Z,21.66
2023-06-27T08:37:16.422Z,21.63
2023-06-27T08:42:18.623Z,21.63
2023-06-27T08:47:23.794Z,21.64
2023-06-27T08:52:26.810Z,21.69
2023-06-27T08:57:33.149Z,21.85
2023-06-27T09:02:35.787Z,21.97
2023-06-27T09:07:37.955Z,21.98
2023-06-27T09:12:44.898Z,22.08
2023-06-27T09:17:48.137Z,22.07
2023-06-27T09:22:51.015Z,21.98
2023-06-27T09:27:55.006Z,21.95
2023-06-27T09:32:59.134Z,21.82
2023-06-27T09:43:14.389Z,21.63
2023-06-27T09:48:19.678Z,21.60
2023-06-27T09:53:23.946Z,21.61
2023-06-27T09:58:32.620Z,21.73
2023-06-27T10:03:35.067Z,21.73
2023-06-27T10:08:37.839Z,21.87
2023-06-27T10:13:40.694Z,21.86
2023-06-27T10:18:43.578Z,21.88
2023-06-27T10:23:53.913Z,21.94
2023-06-27T10:28:56.069Z,22.05
2023-06-27T10:33:59.097Z,22.10
2023-06-27T10:39:00.765Z,22.05
2023-06-27T10:44:10.811Z,22.06
2023-06-27T10:49:12.656Z,22.09
2023-06-27T10:54:17.198Z,22.14
2023-06-27T10:59:20.356Z,22.14
2023-06-27T11:04:27.161Z,22.25
2023-06-27T11:09:30.919Z,22.19
2023-06-27T11:14:39.728Z,22.15
2023-06-27T11:19:43.670Z,22.25
2023-06-27T11:24:46.359Z,22.31
2023-06-27T11:29:48.084Z,22.66
2023-06-27T11:34:50.042Z,22.93
2023-06-27T11:39:55.679Z,23.04
2023-06-27T11:44:57.409Z,22.94
2023-06-27T11:50:10.056Z,22.72
2023-06-27T11:55:11.940Z,22.73
2023-06-27T12:00:27.508Z,22.67
2023-06-27T12:05:29.504Z,22.71
2023-06-27T12:10:32.850Z,22.87
2023-06-27T12:15:47.899Z,23.05
2023-06-27T12:20:51.001Z,23.16
2023-06-27T12:25:52.615Z,23.25
2023-06-27T12:30:54.357Z,23.42
2023-06-27T12:35:56.120Z,23.42
2023-06-27T12:40:58.538Z,23.48
2023-06-27T12:46:04.076Z,23.18
2023-06-27T12:51:05.871Z,23.05
2023-06-27T12:56:07.711Z,22.82
2023-06-27T13:01:11.249Z,22.76
2023-06-27T13:06:13.175Z,22.74
2023-06-27T13:11:16.616Z,22.77
2023-06-27T13:16:18.375Z,22.77
2023-06-27T13:21:20.304Z,22.51
2023-06-27T13:26:22.256Z,22.64
2023-06-27T13:31:24.863Z,22.59
2023-06-27T13:36:26.596Z,22.48
2023-06-27T13:41:29.226Z,22.47
2023-06-27T13:46:31.058Z,22.47
2023-06-27T13:51:32.892Z,22.46
2023-06-27T13:56:37.149Z,22.46
2023-06-27T14:01:40.178Z,22.43
2023-06-27T14:06:41.978Z,22.45
2023-06-27T14:11:43.982Z,22.46
2023-06-27T14:16:45.849Z,22.62
2023-06-27T14:21:47.509Z,22.67
2023-06-27T14:26:49.078Z,22.56
2023-06-27T14:31:50.770Z,22.57
2023-06-27T14:36:53.280Z,22.64
2023-06-27T14:41:55.062Z,22.73
2023-06-27T14:46:56.923Z,22.69
2023-06-27T14:51:58.566Z,22.71
2023-06-27T14:57:00.257Z,22.70
2023-06-27T15:02:01.969Z,22.69
2023-06-27T15:07:03.962Z,22.69
2023-06-27T15:12:06.462Z,22.69
2023-06-27T15:17:08.267Z,22.64
2023-06-27T15:22:09.933Z,22.63
2023-06-27T15:27:11.569Z,22.70
2023-06-27T15:32:14.074Z,22.70
2023-06-27T15:37:15.734Z,22.78
2023-06-27T15:42:17.454Z,22.83
2023-06-27T15:47:20.545Z,22.87
2023-06-27T15:52:22.225Z,22.89
2023-06-27T15:57:23.902Z,22.83
2023-06-27T16:02:25.815Z,22.78
2023-06-27T16:07:27.793Z,22.67
2023-06-27T16:12:29.521Z,22.65
2023-06-27T16:17:31.333Z,22.74
2023-06-27T16:22:33.400Z,22.93
2023-06-27T16:27:35.233Z,22.97
2023-06-27T16:32:37.159Z,22.94
2023-06-27T16:37:38.912Z,23.00
2023-06-27T16:42:40.692Z,23.11
2023-06-27T16:47:42.567Z,23.12
2023-06-27T16:52:44.477Z,22.94
2023-06-27T16:57:46.167Z,22.98
2023-06-27T17:02:49.409Z,23.01
2023-06-27T17:07:51.241Z,23.06
2023-06-27T17:12:53.433Z,22.93
2023-06-27T17:17:55.362Z,22.70
2023-06-27T17:22:57.193Z,22.53
2023-06-27T17:28:01.615Z,22.46
2023-06-27T17:33:03.571Z,22.43
2023-06-27T17:38:05.345Z,22.42
2023-06-27T17:43:08.496Z,22.32
2023-06-27T17:48:10.285Z,22.26
2023-06-27T17:53:11.994Z,22.23
2023-06-27T17:58:13.644Z,22.14
2023-06-27T18:03:15.405Z,22.09
2023-06-27T18:08:20.810Z,22.01
2023-06-27T18:13:22.738Z,21.93
2023-06-27T18:18:24.517Z,21.82
2023-06-27T18:23:26.224Z,21.68
2023-06-27T18:28:29.457Z,21.47
2023-06-27T18:33:31.193Z,21.31
2023-06-27T18:38:32.923Z,21.15
2023-06-27T18:43:34.968Z,20.99
2023-06-27T18:48:37.138Z,20.86
2023-06-27T18:53:38.886Z,20.76
2023-06-27T18:58:42.593Z,20.60
2023-06-27T19:03:44.576Z,20.46
2023-06-27T19:08:46.277Z,20.31
2023-06-27T19:13:48.137Z,20.20
2023-06-27T19:18:49.780Z,20.09
2023-06-27T19:23:52.893Z,19.97
2023-06-27T19:28:54.682Z,19.88
2023-06-27T19:33:56.395Z,19.77
2023-06-27T19:38:58.166Z,19.70
2023-06-27T19:43:59.829Z,19.61
2023-06-27T19:49:01.566Z,19.53
2023-06-27T19:54:04.290Z,19.45
2023-06-27T19:59:06.016Z,19.42
2023-06-27T20:04:07.825Z,19.36
2023-06-27T20:09:09.531Z,19.25
2023-06-27T20:14:11.426Z,19.20
2023-06-27T20:19:13.057Z,19.12
2023-06-27T20:24:15.317Z,19.06
2023-06-27T20:29:17.134Z,18.99
2023-06-27T20:34:18.953Z,18.97
2023-06-27T20:39:21.321Z,18.94
2023-06-27T20:44:23.277Z,18.86
2023-06-27T20:49:25.094Z,18.83
2023-06-27T20:54:26.910Z,18.76
2023-06-27T20:59:28.633Z,18.73
2023-06-27T21:04:30.342Z,18.70
2023-06-27T21:09:32.008Z,18.67
2023-06-27T21:14:33.650Z,18.62
2023-06-27T21:19:35.272Z,18.63
2023-06-27T21:24:36.970Z,18.65
2023-06-27T21:29:38.687Z,18.57
2023-06-27T21:34:40.474Z,18.57
2023-06-27T21:39:42.190Z,18.58
2023-06-27T21:44:44.174Z,18.56
2023-06-27T21:49:45.866Z,18.54
2023-06-27T21:54:47.818Z,18.47
2023-06-27T21:59:49.628Z,18.43
2023-06-27T22:04:51.992Z,18.41
2023-06-27T22:09:53.918Z,18.38
2023-06-27T22:14:55.572Z,18.38
2023-06-27T22:19:57.614Z,18.40
2023-06-27T22:24:59.585Z,18.41
2023-06-27T22:30:01.466Z,18.41
2023-06-27T22:35:03.309Z,18.39
2023-06-27T22:40:05.582Z,18.37
2023-06-27T22:45:07.566Z,18.34
2023-06-27T22:50:09.779Z,18.33
2023-06-27T22:55:11.384Z,18.32
2023-06-27T23:00:13.858Z,18.31
2023-06-27T23:05:15.546Z,18.25
2023-06-27T23:10:17.262Z,18.23
2023-06-27T23:15:18.945Z,18.18
2023-06-27T23:20:20.887Z,18.10
2023-06-27T23:25:22.986Z,18.09
2023-06-27T23:30:27.695Z,18.09
2023-06-27T23:35:29.569Z,18.08
2023-06-27T23:40:31.390Z,18.08
2023-06-27T23:45:39.013Z,18.07
2023-06-27T23:50:41.051Z,18.07
2023-06-27T23:55:43.040Z,18.07
